หน้าหลัก
METAR-TAF:

METAR-TAF

ท่าอากาศยาน :

Ørsta-Volda, นอร์เวย์

ละติจูด: 62-11N, ลองจิจูด: 006-04E, ความสูง: 7 ม.

การสังเกตสภาพอากาศปัจจุบัน

รายงานได้ทำขึ้นเมื่อ 25 นาทีที่แล้ว ณ เวลา 04:20 UTC
ลมสงบ
อุณหภูมิ 9°C
ความชื้น 100%
ความกดอากาศ 1010 hPa
ทัศนวิสัย 10 กม. หรือมากกว่า
ไม่มีเมฆต่ำกว่า 1,500 ม. และไม่มีเมฆคิวมูโลนิมบัส

METAR: ENOV 250420Z 00000KT CAVOK 09/09 Q1010 RMK WIND RWY 24 25003KT WIND 2090FT 15013KT

เวลา: 06:45 (04:45 UTC)

การพยากรณ์

รายงานได้ทำขึ้นเมื่อ 2 ชั่วโมงและ 45 นาทีที่แล้ว ณ เวลา 02:00 UTC
การพยากรณ์มีผลตั้งแต่วันที่ 25 ณ เวลา 03 UTC จนถึงวันที่ 25 ณ เวลา 12 UTC
ลม 3 นอตจากทิศทางซึ่งแปรผันได้
ทัศนวิสัย 10 กม. หรือมากกว่า
ไม่มีเมฆต่ำกว่า 1,500 ม. และไม่มีเมฆคิวมูโลนิมบัส

TAF: ENOV 250200Z 2503/2512 VRB03KT CAVOK

สังเกตการณ์สภาพอากาศและพยากรณ์อากาศของสนามบินมากกว่า 4000 แห่ง (รายงาน METAR และ TAF).

สถานีที่ดูได้จะแสดงไว้ด้วยจุดสีเหลืองและสีแดงบนแผนที่.

เลื่อนเมาส์ไปเหนือจุดเพื่อดูชื่อสถานี.

แล้วคลิกเพื่อดูสังเกตการณ์และการพยากรณ์สภาพอากาศ.

ในการเปลี่ยนแผนที่: คลิกที่ปุ่มสีเขียวที่มีกากบาทสีดำเพื่อซูมเข้า; ที่ปุ่มสีเขียวที่มีขีดเพื่อซูมออก; หรือที่ลูกศรสีเขียวเพื่อไปยังแผนที่ที่อยู่ติดกัน.


METAR-TAF: